Time;durP1;ratioP1;P1;durP2;ratioP2;P2;SDS_P1;SDS_P2;PMS_P1;PMS_P2;Temp;Humidity;BMP_temperature;BMP_pressure;BME280_temperature;BME280_humidity;BME280_pressure;Samples;Min_cycle;Max_cycle;Signal;HPM_P1;HPM_P2
2023/03/24 00:01:18;;;;;;;10.40;4.20;;;11.20;99.90;;;;;;5056579;28;20070;-65
2023/03/24 00:03:44;;;;;;;13.90;4.82;;;10.90;99.90;;;;;;5058599;28;20652;-64
2023/03/24 00:06:12;;;;;;;10.30;3.83;;;10.90;99.90;;;;;;5062033;28;20573;-64
2023/03/24 00:08:40;;;;;;;11.23;4.60;;;10.90;99.90;;;;;;5076833;28;20135;-64
2023/03/24 00:11:10;;;;;;;9.65;4.03;;;11.20;99.90;;;;;;5059115;28;20040;-64
2023/03/24 00:13:37;;;;;;;9.75;3.85;;;10.80;99.90;;;;;;5093076;27;20118;-64
2023/03/24 00:16:11;;;;;;;8.95;4.07;;;11.00;99.90;;;;;;5075900;28;20286;-65
2023/03/24 00:18:38;;;;;;;7.68;3.55;;;10.90;99.90;;;;;;5082295;28;20401;-63
2023/03/24 00:21:05;;;;;;;7.95;3.55;;;11.00;99.90;;;;;;5074016;28;20287;-64
2023/03/24 00:23:32;;;;;;;10.07;3.75;;;11.20;99.90;;;;;;5076116;28;20048;-64
2023/03/24 00:26:07;;;;;;;10.40;3.92;;;11.00;99.90;;;;;;5062106;28;20044;-63
2023/03/24 00:28:35;;;;;;;11.82;4.18;;;11.30;99.90;;;;;;5076276;28;20560;-64
2023/03/24 00:31:03;;;;;;;8.38;3.80;;;11.20;99.90;;;;;;5073042;28;20515;-64
2023/03/24 00:33:31;;;;;;;9.95;4.00;;;10.80;99.90;;;;;;5078321;28;20093;-63
2023/03/24 00:35:59;;;;;;;12.82;4.50;;;11.00;99.90;;;;;;5079888;28;20129;-63
2023/03/24 00:38:25;;;;;;;13.15;4.13;;;10.90;99.90;;;;;;5076937;28;20035;-63
2023/03/24 00:40:51;;;;;;;9.88;3.70;;;10.80;99.90;;;;;;5074009;28;20089;-63
2023/03/24 00:43:17;;;;;;;9.23;3.55;;;10.90;99.90;;;;;;5080462;28;20044;-66
2023/03/24 00:45:44;;;;;;;8.73;4.35;;;10.90;99.90;;;;;;5070393;28;20749;-64
2023/03/24 00:48:12;;;;;;;9.63;4.32;;;10.90;99.90;;;;;;5089908;28;20040;-65
2023/03/24 00:50:38;;;;;;;10.70;4.40;;;11.20;99.90;;;;;;5068373;28;20115;-65
2023/03/24 00:53:04;;;;;;;7.35;3.83;;;11.00;99.90;;;;;;5088197;28;20040;-64
2023/03/24 00:55:30;;;;;;;11.20;4.60;;;11.20;99.90;;;;;;5089069;28;20032;-63
2023/03/24 00:57:56;;;;;;;8.23;3.45;;;11.20;99.90;;;;;;5088586;28;20044;-65
2023/03/24 01:00:24;;;;;;;10.23;4.85;;;10.90;99.90;;;;;;5062335;28;20047;-63
2023/03/24 01:02:53;;;;;;;9.15;4.32;;;11.20;99.90;;;;;;5086425;28;20051;-62
2023/03/24 01:05:21;;;;;;;11.63;4.43;;;11.30;99.90;;;;;;5067569;28;20313;-64
2023/03/24 01:07:50;;;;;;;10.00;3.92;;;11.00;99.90;;;;;;5078428;28;20517;-65
2023/03/24 01:10:18;;;;;;;7.97;4.28;;;10.80;99.90;;;;;;5076860;28;20495;-65
2023/03/24 01:12:44;;;;;;;9.20;4.35;;;11.20;99.90;;;;;;5076668;28;20165;-64
2023/03/24 01:15:18;;;;;;;8.52;4.25;;;10.80;99.90;;;;;;5079100;28;20047;-64
2023/03/24 01:17:45;;;;;;;7.93;3.55;;;11.30;99.90;;;;;;5074957;28;20040;-64
2023/03/24 01:20:12;;;;;;;11.25;4.72;;;10.90;99.90;;;;;;5078984;28;20078;-64
2023/03/24 01:22:39;;;;;;;9.65;4.72;;;10.90;99.90;;;;;;5059566;28;20105;-64
2023/03/24 01:25:15;;;;;;;9.25;3.70;;;10.70;99.90;;;;;;5068292;28;20052;-65
2023/03/24 01:27:45;;;;;;;6.15;3.40;;;11.30;99.90;;;;;;5060817;28;20044;-65
2023/03/24 01:30:21;;;;;;;10.50;4.53;;;11.10;99.90;;;;;;5072106;28;20105;-65
2023/03/24 01:32:46;;;;;;;8.75;4.43;;;10.70;99.90;;;;;;5078579;28;20044;-66
2023/03/24 01:35:13;;;;;;;7.60;4.07;;;10.70;99.90;;;;;;5078450;28;20660;-65
2023/03/24 01:37:39;;;;;;;9.77;4.32;;;10.70;99.90;;;;;;5061908;28;20054;-65
2023/03/24 01:40:09;;;;;;;8.98;4.40;;;11.00;99.90;;;;;;5077729;28;20637;-65
2023/03/24 01:42:36;;;;;;;9.95;4.68;;;10.80;99.90;;;;;;5079498;28;20048;-64
2023/03/24 01:45:40;;;;;;;9.02;4.72;;;10.80;99.90;;;;;;5058834;28;20048;-64
2023/03/24 01:48:18;;;;;;;;;;;10.90;99.90;;;;;;5060434;28;20048;-65
2023/03/24 01:50:50;;;;;;;8.57;4.13;;;11.00;99.90;;;;;;5077490;28;19924;-64
2023/03/24 01:53:17;;;;;;;7.85;3.90;;;10.70;99.90;;;;;;5065352;28;20150;-64
2023/03/24 01:55:46;;;;;;;8.13;3.95;;;10.70;99.90;;;;;;5063932;28;20043;-66
2023/03/24 01:58:12;;;;;;;8.80;4.25;;;10.80;99.90;;;;;;5078159;28;20333;-66
2023/03/24 02:00:38;;;;;;;8.38;4.53;;;10.90;99.90;;;;;;5084975;28;20308;-66
2023/03/24 02:03:20;;;;;;;8.05;4.20;;;11.20;99.90;;;;;;5056074;28;20112;-66
2023/03/24 02:05:48;;;;;;;5.63;4.07;;;10.80;99.90;;;;;;5061794;28;20434;-66
2023/03/24 02:08:20;;;;;;;7.70;4.68;;;11.20;99.90;;;;;;5078902;28;20292;-66
2023/03/24 02:10:47;;;;;;;9.60;4.75;;;10.90;99.90;;;;;;5077254;28;20128;-66
2023/03/24 02:13:26;;;;;;;6.13;3.58;;;11.20;99.90;;;;;;5043254;28;20110;-66
2023/03/24 02:16:21;;;;;;;7.53;4.50;;;10.70;99.90;;;;;;5084156;28;20036;-65
2023/03/24 02:19:13;;;;;;;9.52;4.75;;;11.20;99.90;;;;;;5058166;28;20035;-66
2023/03/24 02:21:54;;;;;;;8.25;4.28;;;10.90;99.90;;;;;;5079825;28;20214;-66
2023/03/24 02:24:41;;;;;;;8.38;4.93;;;10.70;99.90;;;;;;5059957;28;20598;-66
2023/03/24 02:27:18;;;;;;;7.82;4.47;;;11.10;99.90;;;;;;5057715;28;20035;-67
2023/03/24 02:29:47;;;;;;;6.38;3.90;;;11.20;99.90;;;;;;5078882;28;20084;-64
2023/03/24 02:32:24;;;;;;;8.45;3.72;;;11.20;99.90;;;;;;5079124;28;20083;-64
2023/03/24 02:35:28;;;;;;;6.68;4.13;;;10.70;99.90;;;;;;5071332;28;20048;-64
2023/03/24 02:38:08;;;;;;;8.27;4.65;;;11.30;99.90;;;;;;5075405;28;20051;-64
2023/03/24 02:40:37;;;;;;;7.93;4.30;;;10.90;99.90;;;;;;5075460;28;20039;-63
2023/03/24 02:43:24;;;;;;;8.32;4.97;;;10.70;99.90;;;;;;5077308;28;20035;-63
2023/03/24 02:45:52;;;;;;;6.60;4.00;;;11.30;99.90;;;;;;5087996;28;20039;-64
2023/03/24 02:48:24;;;;;;;6.78;3.92;;;10.70;99.90;;;;;;5088221;28;20036;-64
2023/03/24 02:51:14;;;;;;;9.98;4.43;;;10.80;99.90;;;;;;5078717;28;20055;-66
2023/03/24 02:54:11;;;;;;;10.07;5.28;;;11.30;99.90;;;;;;5082540;28;20040;-63
2023/03/24 02:56:37;;;;;;;6.60;3.63;;;11.30;99.90;;;;;;5080878;28;20359;-66
2023/03/24 02:59:05;;;;;;;8.05;5.03;;;11.30;99.90;;;;;;5064346;28;20524;-66
2023/03/24 03:01:42;;;;;;;8.57;4.78;;;10.80;99.90;;;;;;5076705;28;20036;-66
2023/03/24 03:04:16;;;;;;;8.25;4.03;;;10.80;99.90;;;;;;5076119;28;20069;-66
2023/03/24 03:06:43;;;;;;;;;;;11.10;99.90;;;;;;5077691;28;20047;-66
2023/03/24 03:09:13;;;;;;;6.80;4.82;;;11.40;99.90;;;;;;5084017;28;19924;-66
2023/03/24 03:11:43;;;;;;;7.07;4.53;;;11.20;99.90;;;;;;5078434;28;20063;-66
2023/03/24 03:14:26;;;;;;;5.97;4.60;;;11.00;99.90;;;;;;5054182;28;20276;-66
2023/03/24 03:17:00;;;;;;;7.07;5.30;;;10.90;99.90;;;;;;5058225;28;21394;-66
2023/03/24 03:19:32;;;;;;;9.90;5.10;;;10.80;99.90;;;;;;5061099;28;20294;-66
2023/03/24 03:21:59;;;;;;;10.30;5.50;;;10.90;99.90;;;;;;5070216;28;20063;-66
2023/03/24 03:24:36;;;;;;;7.80;4.65;;;11.00;99.90;;;;;;5081558;28;20211;-67
2023/03/24 03:27:25;;;;;;;7.90;5.07;;;11.00;99.90;;;;;;5083718;28;20044;-64
2023/03/24 03:29:57;;;;;;;5.47;4.57;;;11.50;99.90;;;;;;5097534;28;20036;-64
2023/03/24 03:32:28;;;;;;;8.20;5.53;;;11.30;99.90;;;;;;5098943;28;20043;-65
2023/03/24 03:35:33;;;;;;;8.20;5.75;;;11.20;99.90;;;;;;5059178;28;20041;-65
2023/03/24 03:38:31;;;;;;;9.15;5.10;;;11.10;99.90;;;;;;5094225;28;20507;-65
2023/03/24 03:41:17;;;;;;;6.13;4.50;;;11.40;99.90;;;;;;5091088;28;20432;-64
2023/03/24 03:43:44;;;;;;;6.78;4.00;;;11.30;99.90;;;;;;5071875;28;20051;-64
2023/03/24 03:46:11;;;;;;;6.70;4.65;;;11.50;99.90;;;;;;5092218;28;20041;-66
2023/03/24 03:48:37;;;;;;;7.60;4.22;;;11.40;99.90;;;;;;5080387;28;20051;-67
2023/03/24 03:51:04;;;;;;;5.53;4.15;;;11.00;99.90;;;;;;5079766;28;20445;-67
2023/03/24 03:53:47;;;;;;;7.47;3.30;;;11.10;99.90;;;;;;5084706;28;20035;-67
2023/03/24 03:56:17;;;;;;;5.05;3.17;;;11.60;99.90;;;;;;5076991;28;20093;-66
2023/03/24 03:58:46;;;;;;;3.72;2.17;;;11.10;99.90;;;;;;5075388;28;20047;-65
2023/03/24 04:01:17;;;;;;;4.15;2.10;;;11.50;99.90;;;;;;5082679;28;20563;-66
2023/03/24 04:04:08;;;;;;;5.32;2.35;;;10.80;99.90;;;;;;5081828;28;20351;-66
2023/03/24 04:06:52;;;;;;;4.32;1.70;;;10.80;99.90;;;;;;5059485;28;20072;-64
2023/03/24 04:09:48;;;;;;;3.78;1.85;;;11.10;99.90;;;;;;5060880;28;20055;-65
2023/03/24 04:12:29;;;;;;;4.65;1.52;;;11.00;99.90;;;;;;5062542;28;20549;-65
2023/03/24 04:15:03;;;;;;;6.32;2.17;;;10.90;99.90;;;;;;5074201;28;20603;-63
2023/03/24 04:17:57;;;;;;;5.28;1.73;;;10.40;99.90;;;;;;5064808;28;20238;-65
2023/03/24 04:20:45;;;;;;;3.13;1.08;;;10.30;99.90;;;;;;5083324;28;20370;-67
2023/03/24 04:23:38;;;;;;;4.85;1.17;;;10.40;99.90;;;;;;5076363;28;20094;-68
2023/03/24 04:26:26;;;;;;;4.13;1.05;;;10.70;99.90;;;;;;5076354;28;20044;-68
2023/03/24 04:29:17;;;;;;;5.72;1.25;;;10.50;99.90;;;;;;5074300;28;20577;-67
2023/03/24 04:32:10;;;;;;;5.25;0.90;;;10.20;99.90;;;;;;5076156;28;20050;-67
2023/03/24 04:34:41;;;;;;;3.47;0.65;;;10.10;99.90;;;;;;5078025;28;20131;-68
2023/03/24 04:37:15;;;;;;;8.68;0.70;;;10.10;99.90;;;;;;5074523;28;20040;-67
2023/03/24 04:39:44;;;;;;;5.28;1.10;;;10.00;99.90;;;;;;5075561;28;20232;-68
2023/03/24 04:42:44;;;;;;;11.85;1.10;;;10.40;99.90;;;;;;5074559;28;20051;-67
2023/03/24 04:45:11;;;;;;;8.30;0.70;;;10.10;99.90;;;;;;5060208;28;20040;-67
2023/03/24 04:47:46;;;;;;;6.50;0.60;;;10.20;99.90;;;;;;5081009;28;20122;-67
2023/03/24 04:50:12;;;;;;;8.13;0.60;;;10.10;99.90;;;;;;5072620;28;20028;-67
2023/03/24 04:52:40;;;;;;;7.57;0.70;;;9.70;99.90;;;;;;5077843;28;20571;-68
2023/03/24 04:56:03;;;;;;;13.02;0.90;;;9.70;99.90;;;;;;5080352;28;20050;-65
2023/03/24 04:58:29;;;;;;;8.00;1.02;;;9.80;99.90;;;;;;5037757;28;20043;-67
2023/03/24 05:00:57;;;;;;;9.18;0.77;;;9.40;99.90;;;;;;5070521;28;20149;-65
2023/03/24 05:03:24;;;;;;;8.82;0.93;;;9.40;99.90;;;;;;5077621;28;20043;-66
2023/03/24 05:05:51;;;;;;;5.82;0.55;;;9.50;99.90;;;;;;5041424;28;20541;-66
2023/03/24 05:08:18;;;;;;;7.82;0.93;;;9.50;99.90;;;;;;5077977;28;20032;-67
2023/03/24 05:10:45;;;;;;;12.02;0.75;;;9.30;99.90;;;;;;5077530;28;20186;-68
2023/03/24 05:13:11;;;;;;;9.35;0.55;;;9.50;99.90;;;;;;5075284;28;20036;-68
2023/03/24 05:15:37;;;;;;;8.82;1.08;;;9.30;99.90;;;;;;5047480;28;20083;-68
2023/03/24 05:18:05;;;;;;;8.02;1.05;;;9.50;99.90;;;;;;5081087;28;20044;-68
2023/03/24 05:20:31;;;;;;;10.77;0.88;;;9.30;99.90;;;;;;5055060;28;20044;-68
2023/03/24 05:22:57;;;;;;;7.82;0.60;;;9.10;99.90;;;;;;5080757;28;20448;-67
2023/03/24 05:25:23;;;;;;;8.82;0.93;;;9.30;99.90;;;;;;5078343;28;20073;-67
2023/03/24 05:27:49;;;;;;;10.75;1.20;;;9.10;99.90;;;;;;5079224;28;20036;-69
2023/03/24 05:30:15;;;;;;;7.00;0.77;;;9.10;99.90;;;;;;5062788;28;20558;-69
2023/03/24 05:32:41;;;;;;;8.52;0.80;;;9.10;99.90;;;;;;5063495;28;20116;-68
2023/03/24 05:35:07;;;;;;;7.85;0.77;;;9.20;99.90;;;;;;5072973;28;20328;-69
2023/03/24 05:37:33;;;;;;;6.70;0.75;;;9.10;99.90;;;;;;5072615;28;20075;-67
2023/03/24 05:39:59;;;;;;;9.80;1.10;;;9.00;99.90;;;;;;5080343;28;21015;-68
2023/03/24 05:42:24;;;;;;;12.18;0.93;;;8.90;99.90;;;;;;5078132;28;20156;-68
2023/03/24 05:44:50;;;;;;;6.63;0.98;;;9.00;99.90;;;;;;5061980;28;20609;-68
2023/03/24 05:47:18;;;;;;;9.77;1.30;;;8.80;99.90;;;;;;5078005;28;20065;-69
2023/03/24 05:49:45;;;;;;;10.63;1.13;;;9.20;99.90;;;;;;5058567;28;20385;-68
2023/03/24 05:52:11;;;;;;;10.00;0.80;;;9.30;99.90;;;;;;5082208;28;20409;-68
2023/03/24 05:54:38;;;;;;;15.32;1.42;;;9.00;99.90;;;;;;5078776;28;20036;-69
2023/03/24 05:57:07;;;;;;;9.85;1.13;;;9.10;99.90;;;;;;5076990;28;20036;-69
2023/03/24 05:59:36;;;;;;;8.00;1.00;;;9.10;99.90;;;;;;5078657;28;20078;-67
2023/03/24 06:02:03;;;;;;;8.10;0.98;;;9.30;99.90;;;;;;5084501;28;20039;-68
2023/03/24 06:04:29;;;;;;;11.27;1.42;;;9.60;99.90;;;;;;5083620;28;20031;-69
2023/03/24 06:06:58;;;;;;;13.18;1.52;;;9.50;99.90;;;;;;5066216;28;20267;-68
2023/03/24 06:09:28;;;;;;;11.55;1.63;;;9.60;99.90;;;;;;5075501;28;20093;-68
2023/03/24 06:12:01;;;;;;;14.90;1.52;;;9.40;99.90;;;;;;5084976;28;20139;-69
2023/03/24 06:14:27;;;;;;;9.20;1.27;;;9.70;79.20;;;;;;5078336;28;20355;-68
2023/03/24 06:16:52;;;;;;;11.27;1.40;;;9.70;58.00;;;;;;5057366;28;20134;-69
2023/03/24 06:19:23;;;;;;;11.25;1.75;;;9.80;1.00;;;;;;5081451;28;20043;-69
2023/03/24 06:21:49;;;;;;;9.25;1.27;;;9.60;42.00;;;;;;5081906;28;20059;-69
2023/03/24 06:24:16;;;;;;;12.45;1.60;;;9.60;99.90;;;;;;5083048;28;20135;-69
2023/03/24 06:26:43;;;;;;;10.45;1.92;;;9.70;99.90;;;;;;5057839;28;20074;-69
2023/03/24 06:29:10;;;;;;;14.55;1.83;;;9.80;1.50;;;;;;5076971;28;20043;-69
2023/03/24 06:31:36;;;;;;;11.93;1.63;;;9.90;50.40;;;;;;5077501;28;20052;-69
2023/03/24 06:34:03;;;;;;;9.98;1.10;;;9.80;1.00;;;;;;5077976;28;20050;-68
2023/03/24 06:36:29;;;;;;;10.68;1.65;;;9.90;1.00;;;;;;5079259;28;20044;-68
2023/03/24 06:38:55;;;;;;;13.00;1.60;;;9.80;1.00;;;;;;5080157;28;20305;-68
2023/03/24 06:41:21;;;;;;;14.40;1.60;;;10.00;99.90;;;;;;5058839;28;20262;-68
2023/03/24 06:43:47;;;;;;;14.50;1.58;;;9.90;99.90;;;;;;5058763;28;20046;-68
2023/03/24 06:46:13;;;;;;;11.15;1.33;;;9.90;1.00;;;;;;5081184;28;20040;-68
2023/03/24 06:48:38;;;;;;;10.07;1.65;;;9.80;99.90;;;;;;5080304;28;20050;-69
2023/03/24 06:51:05;;;;;;;11.13;1.60;;;9.80;1.00;;;;;;5064971;28;20355;-69
2023/03/24 06:53:30;;;;;;;13.63;1.50;;;9.90;99.90;;;;;;5083398;28;20314;-67
2023/03/24 06:55:56;;;;;;;14.38;1.15;;;9.80;1.00;;;;;;5079474;28;20681;-67
2023/03/24 06:58:22;;;;;;;11.27;1.42;;;9.80;1.00;;;;;;5062125;28;20101;-68
2023/03/24 07:00:49;;;;;;;13.45;1.85;;;10.00;1.00;;;;;;5079462;28;20139;-66
2023/03/24 07:03:15;;;;;;;16.70;1.75;;;9.80;99.90;;;;;;5060872;28;20123;-67
2023/03/24 07:05:43;;;;;;;10.05;1.73;;;9.80;1.00;;;;;;5085685;28;20413;-66
2023/03/24 07:08:13;;;;;;;12.40;1.60;;;10.00;99.90;;;;;;5063679;28;20071;-68
2023/03/24 07:10:39;;;;;;;12.90;1.65;;;10.00;99.90;;;;;;5071827;28;20063;-67
2023/03/24 07:13:06;;;;;;;7.93;1.25;;;9.90;99.90;;;;;;5057477;28;20136;-67
2023/03/24 07:15:32;;;;;;;9.90;1.50;;;9.80;99.90;;;;;;5078247;28;20430;-68
2023/03/24 07:17:58;;;;;;;14.32;1.70;;;10.00;99.90;;;;;;5077469;28;20067;-68
2023/03/24 07:20:24;;;;;;;15.60;1.98;;;9.90;1.00;;;;;;5075973;28;20596;-68
2023/03/24 07:22:50;;;;;;;12.20;1.23;;;9.90;99.90;;;;;;5059385;28;20040;-68
2023/03/24 07:25:19;;;;;;;14.27;1.70;;;10.00;99.90;;;;;;5077534;28;20042;-68
2023/03/24 07:27:45;;;;;;;13.77;1.52;;;9.90;99.90;;;;;;5076674;28;20047;-67
2023/03/24 07:30:12;;;;;;;13.73;1.48;;;10.00;99.90;;;;;;5064475;28;20429;-67
2023/03/24 07:32:38;;;;;;;15.88;2.38;;;10.10;1.00;;;;;;5077010;28;20084;-66
2023/03/24 07:35:11;;;;;;;10.63;1.33;;;10.00;99.90;;;;;;5078345;28;20036;-67
2023/03/24 07:37:37;;;;;;;13.85;0.98;;;10.00;99.90;;;;;;5069772;28;20075;-67
2023/03/24 07:40:05;;;;;;;13.38;1.70;;;10.10;99.90;;;;;;5043150;28;20043;-67
2023/03/24 07:42:32;;;;;;;15.32;1.77;;;10.10;99.90;;;;;;5078773;28;20144;-66
2023/03/24 07:44:57;;;;;;;15.45;1.92;;;10.10;99.90;;;;;;5076472;28;20048;-66
2023/03/24 07:47:23;;;;;;;13.60;1.25;;;10.00;99.90;;;;;;5092176;27;20063;-65
2023/03/24 07:49:49;;;;;;;14.85;1.52;;;10.10;99.90;;;;;;5083253;27;20035;-65
2023/03/24 07:52:14;;;;;;;17.83;1.95;;;10.10;99.90;;;;;;5077957;28;20569;-66
2023/03/24 07:54:40;;;;;;;12.00;1.70;;;10.10;99.90;;;;;;5072132;28;20044;-67
2023/03/24 07:57:06;;;;;;;16.80;2.13;;;10.20;99.90;;;;;;5060986;28;20291;-66
2023/03/24 07:59:33;;;;;;;14.73;1.40;;;10.20;99.90;;;;;;5043757;28;20086;-67
2023/03/24 08:01:58;;;;;;;17.33;1.50;;;10.10;99.90;;;;;;5081201;28;20410;-67
2023/03/24 08:04:26;;;;;;;12.82;1.75;;;10.10;99.90;;;;;;5076111;28;20241;-67
2023/03/24 08:06:53;;;;;;;16.83;1.92;;;10.20;99.90;;;;;;5077672;28;20048;-68
2023/03/24 08:09:19;;;;;;;17.95;2.17;;;10.20;99.90;;;;;;5077003;28;20104;-68
2023/03/24 08:11:45;;;;;;;17.92;1.85;;;10.40;99.90;;;;;;5073305;28;20052;-67
2023/03/24 08:14:11;;;;;;;13.10;1.38;;;10.40;99.90;;;;;;5082963;28;20046;-67
2023/03/24 08:16:39;;;;;;;14.02;1.73;;;10.60;99.90;;;;;;5079236;28;20724;-67
2023/03/24 08:19:05;;;;;;;15.85;1.75;;;10.60;99.90;;;;;;5057586;28;20040;-66
2023/03/24 08:21:31;;;;;;;19.45;2.40;;;10.40;30.60;;;;;;5028536;28;20048;-67
2023/03/24 08:23:57;;;;;;;18.70;2.40;;;10.40;99.90;;;;;;5078235;28;20270;-66
2023/03/24 08:26:25;;;;;;;14.90;2.00;;;10.50;99.90;;;;;;5074852;28;20286;-66
2023/03/24 08:28:52;;;;;;;16.00;1.92;;;10.60;99.90;;;;;;5050844;28;20313;-66
2023/03/24 08:31:17;;;;;;;19.88;2.65;;;10.70;99.90;;;;;;5077541;28;20046;-66
2023/03/24 08:33:43;;;;;;;17.67;1.90;;;10.80;99.90;;;;;;5074699;28;20048;-67
2023/03/24 08:36:09;;;;;;;20.63;2.25;;;10.80;99.90;;;;;;5076983;28;20138;-66
2023/03/24 08:38:37;;;;;;;19.73;2.22;;;10.90;99.90;;;;;;5063379;28;20059;-67
2023/03/24 08:41:05;;;;;;;15.27;1.88;;;10.90;99.90;;;;;;5058243;28;20043;-66
2023/03/24 08:43:32;;;;;;;14.93;2.03;;;10.90;99.90;;;;;;5068712;28;20044;-68
2023/03/24 08:46:00;;;;;;;17.15;1.77;;;10.80;91.50;;;;;;5074507;28;20047;-66
2023/03/24 08:48:27;;;;;;;18.50;2.42;;;10.90;37.30;;;;;;5075050;28;20177;-65
2023/03/24 08:50:53;;;;;;;14.35;2.08;;;11.10;99.90;;;;;;5080944;28;20306;-66
2023/03/24 08:53:19;;;;;;;17.33;1.92;;;11.60;97.50;;;;;;5062587;28;20231;-66
2023/03/24 08:55:45;;;;;;;15.20;1.60;;;12.10;12.60;;;;;;5075655;28;20398;-65
2023/03/24 08:58:16;;;;;;;13.35;1.75;;;12.60;99.90;;;;;;5075679;28;20055;-65
2023/03/24 09:00:43;;;;;;;16.67;2.17;;;12.30;1.00;;;;;;5066840;28;20047;-66
2023/03/24 09:03:13;;;;;;;14.68;1.77;;;12.00;99.90;;;;;;5080013;28;20070;-66
2023/03/24 09:05:39;;;;;;;13.43;1.90;;;12.20;99.90;;;;;;5066862;28;20040;-65
2023/03/24 09:08:06;;;;;;;11.60;1.63;;;12.60;99.90;;;;;;5058581;28;20044;-67
2023/03/24 09:10:32;;;;;;;14.65;1.77;;;12.70;1.00;;;;;;5073165;28;20052;-66
2023/03/24 09:12:58;;;;;;;12.77;1.92;;;12.80;99.90;;;;;;5088795;28;20126;-66
2023/03/24 09:15:24;;;;;;;15.23;1.65;;;12.60;99.90;;;;;;5043681;28;20181;-66
2023/03/24 09:17:50;;;;;;;15.02;2.03;;;12.50;99.90;;;;;;5088122;28;20039;-67
2023/03/24 09:20:17;;;;;;;13.52;2.20;;;12.90;1.00;;;;;;5062801;28;20051;-66
2023/03/24 09:22:45;;;;;;;16.35;2.20;;;13.40;99.90;;;;;;5082669;28;20536;-65
2023/03/24 09:25:14;;;;;;;12.98;1.92;;;13.50;99.90;;;;;;5075202;28;20050;-66
2023/03/24 09:27:40;;;;;;;12.85;2.22;;;13.20;99.90;;;;;;5089866;28;20040;-66
2023/03/24 09:30:08;;;;;;;13.40;1.77;;;12.70;99.90;;;;;;5082093;28;20082;-65
2023/03/24 09:32:34;;;;;;;13.43;1.52;;;12.60;99.90;;;;;;5079641;28;20201;-66
2023/03/24 09:35:00;;;;;;;16.85;1.95;;;12.70;99.90;;;;;;5075404;28;20109;-66
2023/03/24 09:37:30;;;;;;;15.32;2.22;;;13.00;99.90;;;;;;5086750;28;20043;-65
2023/03/24 09:39:57;;;;;;;12.52;1.95;;;13.10;99.90;;;;;;5075516;28;20469;-63
2023/03/24 09:42:27;;;;;;;19.17;2.65;;;12.80;99.90;;;;;;5086367;28;20062;-66
2023/03/24 09:44:56;;;;;;;14.60;1.73;;;12.30;99.90;;;;;;5080782;28;20074;-64
2023/03/24 09:47:30;;;;;;;16.33;2.33;;;11.90;99.90;;;;;;5095262;28;20043;-64
2023/03/24 09:50:08;;;;;;;16.98;1.85;;;11.70;99.90;;;;;;5084795;28;20036;-64
2023/03/24 09:52:43;;;;;;;15.13;1.70;;;12.10;99.90;;;;;;5082829;28;20035;-65
2023/03/24 09:55:20;;;;;;;12.60;2.00;;;12.20;99.90;;;;;;5093536;28;20080;-63
2023/03/24 09:57:48;;;;;;;10.63;1.38;;;12.50;99.90;;;;;;5083040;28;20627;-64
2023/03/24 10:00:22;;;;;;;13.32;1.90;;;13.20;99.90;;;;;;5076414;28;20319;-65
2023/03/24 10:02:49;;;;;;;19.10;2.67;;;13.80;99.90;;;;;;5083456;28;20043;-65
2023/03/24 10:05:44;;;;;;;12.10;1.35;;;14.10;99.90;;;;;;5076960;28;20669;-66
2023/03/24 10:08:33;;;;;;;12.77;2.08;;;14.00;99.90;;;;;;5071221;28;20047;-65
2023/03/24 10:11:41;;;;;;;17.75;1.58;;;14.20;99.90;;;;;;5074344;28;20190;-65
2023/03/24 10:14:23;;;;;;;11.23;1.85;;;14.40;99.90;;;;;;5073085;28;20036;-64
2023/03/24 10:16:59;;;;;;;11.60;1.45;;;14.30;99.90;;;;;;5065209;28;20350;-64
2023/03/24 10:19:39;;;;;;;11.77;1.67;;;14.30;99.90;;;;;;5064759;28;20410;-64
2023/03/24 10:22:26;;;;;;;13.13;1.85;;;14.70;99.90;;;;;;5063209;28;20506;-65
2023/03/24 10:25:37;;;;;;;16.02;2.08;;;15.10;99.90;;;;;;5047719;28;20044;-66
2023/03/24 10:28:26;;;;;;;10.88;1.50;;;15.20;99.90;;;;;;5056332;28;20382;-64
2023/03/24 10:30:55;;;;;;;15.10;2.00;;;15.20;37.00;;;;;;5071877;28;20041;-65
2023/03/24 10:33:21;;;;;;;10.13;1.13;;;15.70;99.90;;;;;;5069249;28;20137;-64
2023/03/24 10:35:52;;;;;;;12.85;1.67;;;16.10;99.90;;;;;;5070015;28;20726;-64
2023/03/24 10:38:20;;;;;;;13.30;1.70;;;16.10;99.90;;;;;;5068194;28;20036;-63
2023/03/24 10:40:48;;;;;;;12.23;1.92;;;15.60;99.90;;;;;;5071675;28;20038;-64
2023/03/24 10:43:17;;;;;;;11.75;1.73;;;15.70;99.90;;;;;;5068990;28;20044;-64
2023/03/24 10:45:47;;;;;;;10.07;1.50;;;15.90;90.50;;;;;;5068060;28;20048;-64
2023/03/24 10:48:32;;;;;;;10.23;1.50;;;16.20;99.90;;;;;;5043952;28;20044;-65
2023/03/24 10:50:58;;;;;;;8.75;1.20;;;16.10;1.00;;;;;;5072008;28;20062;-65
2023/03/24 10:53:24;;;;;;;9.85;1.15;;;16.00;1.00;;;;;;5068693;28;20378;-65
2023/03/24 10:55:50;;;;;;;9.32;1.20;;;15.80;99.90;;;;;;5072450;28;20559;-64
2023/03/24 10:58:36;;;;;;;11.75;1.23;;;15.50;1.00;;;;;;5067580;28;20520;-64
2023/03/24 11:01:06;;;;;;;9.07;1.08;;;14.90;99.90;;;;;;5072855;28;20043;-64
2023/03/24 11:03:35;;;;;;;8.38;1.40;;;14.40;1.00;;;;;;5070686;28;20036;-64
2023/03/24 11:06:03;;;;;;;13.63;2.03;;;14.30;1.00;;;;;;5070969;28;20043;-64
2023/03/24 11:08:38;;;;;;;8.25;1.00;;;14.00;1.00;;;;;;5065683;28;20044;-64
2023/03/24 11:11:33;;;;;;;9.10;0.93;;;13.90;99.90;;;;;;5061372;28;20561;-64
2023/03/24 11:14:01;;;;;;;10.07;1.10;;;13.70;99.90;;;;;;5051927;28;20040;-64
2023/03/24 11:16:36;;;;;;;11.15;1.27;;;13.50;1.00;;;;;;5068468;28;20074;-65
2023/03/24 11:19:16;;;;;;;16.92;1.40;;;13.20;1.00;;;;;;5063072;28;20136;-64
2023/03/24 11:21:42;;;;;;;9.98;1.33;;;13.10;57.40;;;;;;5043071;28;20054;-64
2023/03/24 11:24:14;;;;;;;13.18;1.23;;;12.80;1.00;;;;;;5061147;28;20048;-64
2023/03/24 11:26:55;;;;;;;12.07;1.42;;;12.60;8.90;;;;;;5058012;28;20090;-64
2023/03/24 11:29:24;;;;;;;9.90;1.30;;;12.50;30.00;;;;;;5066481;28;20043;-64
2023/03/24 11:32:02;;;;;;;12.45;1.30;;;12.60;99.90;;;;;;5067828;28;20406;-64
2023/03/24 11:34:33;;;;;;;11.88;1.38;;;12.40;17.70;;;;;;5068890;28;20210;-64
2023/03/24 11:37:08;;;;;;;6.32;0.68;;;12.50;1.00;;;;;;5069367;28;20573;-64
2023/03/24 11:39:34;;;;;;;10.55;0.90;;;12.50;1.00;;;;;;5066511;28;20082;-65
2023/03/24 11:42:13;;;;;;;8.20;1.50;;;12.70;1.00;;;;;;5068211;28;20047;-63
2023/03/24 11:44:50;;;;;;;10.15;1.33;;;13.10;1.00;;;;;;5071055;28;20042;-63
2023/03/24 11:47:33;;;;;;;12.45;1.23;;;13.10;1.00;;;;;;5052439;28;20028;-63
2023/03/24 11:54:09;;;;;;;10.52;1.23;;;13.90;1.00;;;;;;5090039;28;20035;-62
2023/03/24 11:57:06;;;;;;;8.65;0.93;;;13.80;99.90;;;;;;5076912;28;20068;-64
2023/03/24 12:00:20;;;;;;;7.35;0.80;;;13.50;1.00;;;;;;5074622;28;20751;-63
2023/03/24 12:03:14;;;;;;;10.45;1.55;;;14.00;1.00;;;;;;5055571;28;20047;-64
2023/03/24 12:06:15;;;;;;;10.82;1.40;;;14.30;1.00;;;;;;5076926;28;20113;-63
2023/03/24 12:08:47;;;;;;;12.70;1.60;;;14.20;1.00;;;;;;5055041;28;20487;-66
2023/03/24 12:11:30;;;;;;;7.43;1.25;;;14.00;1.00;;;;;;5075264;28;20080;-64
2023/03/24 12:13:58;;;;;;;8.93;1.35;;;14.50;1.00;;;;;;5075517;28;20074;-64
2023/03/24 12:16:40;;;;;;;14.52;1.95;;;14.80;99.90;;;;;;5077290;28;20609;-63
2023/03/24 12:19:32;;;;;;;9.82;1.77;;;14.50;99.90;;;;;;5074894;28;20047;-63
2023/03/24 12:22:30;;;;;;;7.95;1.02;;;14.70;99.90;;;;;;5074849;28;21165;-64
2023/03/24 12:24:55;;;;;;;10.95;1.52;;;15.30;99.90;;;;;;5075175;28;20374;-63
2023/03/24 12:28:03;;;;;;;8.57;1.23;;;15.90;1.00;;;;;;5075405;28;20119;-64
2023/03/24 12:30:49;;;;;;;9.88;1.00;;;16.60;99.90;;;;;;5075936;28;20051;-64
2023/03/24 12:33:47;;;;;;;8.18;0.88;;;16.90;99.90;;;;;;5075291;28;20206;-63
2023/03/24 12:36:30;;;;;;;8.38;0.90;;;16.50;99.90;;;;;;5076401;28;20243;-65
2023/03/24 12:39:25;;;;;;;6.95;0.98;;;16.20;99.90;;;;;;5076624;28;20609;-64
2023/03/24 12:42:11;;;;;;;9.60;1.27;;;16.30;99.90;;;;;;5074322;28;20036;-63
2023/03/24 12:45:01;;;;;;;6.32;0.98;;;16.30;99.90;;;;;;5058751;28;20051;-64
2023/03/24 12:47:42;;;;;;;8.88;1.27;;;16.20;99.90;;;;;;5075266;28;20051;-63
2023/03/24 12:50:45;;;;;;;9.98;1.00;;;16.30;99.90;;;;;;5075277;28;20566;-64
2023/03/24 12:53:22;;;;;;;9.77;0.87;;;16.20;99.90;;;;;;5075155;28;20456;-65
2023/03/24 12:55:58;;;;;;;8.55;1.23;;;15.60;99.90;;;;;;5077878;28;20048;-64
2023/03/24 12:58:41;;;;;;;9.75;1.25;;;15.00;99.90;;;;;;5077161;28;20083;-63
2023/03/24 13:01:28;;;;;;;10.68;1.33;;;14.70;1.00;;;;;;5075901;28;20060;-64
2023/03/24 13:04:24;;;;;;;10.82;1.48;;;14.70;1.00;;;;;;5060083;28;20436;-64
2023/03/24 13:07:13;;;;;;;11.60;1.33;;;15.30;99.90;;;;;;5074790;28;20119;-64
2023/03/24 13:10:00;;;;;;;11.75;1.02;;;16.00;1.00;;;;;;5075415;28;20161;-63
2023/03/24 13:12:31;;;;;;;10.63;1.27;;;15.20;99.90;;;;;;5077801;28;20044;-63
2023/03/24 13:15:13;;;;;;;8.88;1.15;;;14.30;1.00;;;;;;5076312;28;20047;-63
2023/03/24 13:17:48;;;;;;;9.23;1.05;;;14.10;1.00;;;;;;5075165;28;20052;-64
2023/03/24 13:20:24;;;;;;;11.20;1.02;;;13.90;1.00;;;;;;5076608;28;20070;-64